sensor_id;sensor_type;location;lat;lon;timestamp;temperature;humidity
22940;DHT22;11636;52.086;5.090;2022-12-19T00:01:04;1.10;99.90
22940;DHT22;11636;52.086;5.090;2022-12-19T00:03:36;1.10;99.90
22940;DHT22;11636;52.086;5.090;2022-12-19T00:06:10;1.20;99.90
22940;DHT22;11636;52.086;5.090;2022-12-19T00:08:44;1.20;99.90
22940;DHT22;11636;52.086;5.090;2022-12-19T00:11:19;1.20;99.90
22940;DHT22;11636;52.086;5.090;2022-12-19T00:13:46;1.20;99.90
22940;DHT22;11636;52.086;5.090;2022-12-19T00:16:21;1.30;99.90
22940;DHT22;11636;52.086;5.090;2022-12-19T00:18:58;1.30;99.90
22940;DHT22;11636;52.086;5.090;2022-12-19T00:21:28;1.30;99.90
22940;DHT22;11636;52.086;5.090;2022-12-19T00:24:04;1.30;99.90
22940;DHT22;11636;52.086;5.090;2022-12-19T00:26:47;1.30;99.90
22940;DHT22;11636;52.086;5.090;2022-12-19T00:29:22;1.30;99.90
22940;DHT22;11636;52.086;5.090;2022-12-19T00:31:56;1.30;99.90
22940;DHT22;11636;52.086;5.090;2022-12-19T00:34:24;1.30;99.90
22940;DHT22;11636;52.086;5.090;2022-12-19T00:36:57;1.30;99.90
22940;DHT22;11636;52.086;5.090;2022-12-19T00:39:24;1.30;99.90
22940;DHT22;11636;52.086;5.090;2022-12-19T00:41:51;1.40;99.90
22940;DHT22;11636;52.086;5.090;2022-12-19T00:44:25;1.30;99.90
22940;DHT22;11636;52.086;5.090;2022-12-19T00:46:58;1.40;99.90
22940;DHT22;11636;52.086;5.090;2022-12-19T00:49:25;1.40;99.90
22940;DHT22;11636;52.086;5.090;2022-12-19T00:51:52;1.50;99.90
22940;DHT22;11636;52.086;5.090;2022-12-19T00:54:27;1.50;99.90
22940;DHT22;11636;52.086;5.090;2022-12-19T00:56:54;1.50;99.90
22940;DHT22;11636;52.086;5.090;2022-12-19T00:59:21;1.50;99.90
22940;DHT22;11636;52.086;5.090;2022-12-19T01:01:56;1.60;99.90
22940;DHT22;11636;52.086;5.090;2022-12-19T01:04:23;1.60;99.90
22940;DHT22;11636;52.086;5.090;2022-12-19T01:06:55;1.70;99.90
22940;DHT22;11636;52.086;5.090;2022-12-19T01:09:29;1.60;99.90
22940;DHT22;11636;52.086;5.090;2022-12-19T01:11:56;1.70;99.90
22940;DHT22;11636;52.086;5.090;2022-12-19T01:14:54;1.70;99.90
22940;DHT22;11636;52.086;5.090;2022-12-19T01:17:30;1.70;99.90
22940;DHT22;11636;52.086;5.090;2022-12-19T01:20:12;1.70;99.90
22940;DHT22;11636;52.086;5.090;2022-12-19T01:22:39;1.80;99.90
22940;DHT22;11636;52.086;5.090;2022-12-19T01:25:13;1.80;99.90
22940;DHT22;11636;52.086;5.090;2022-12-19T01:27:40;1.80;99.90
22940;DHT22;11636;52.086;5.090;2022-12-19T01:30:08;1.80;99.90
22940;DHT22;11636;52.086;5.090;2022-12-19T01:32:42;1.80;99.90
22940;DHT22;11636;52.086;5.090;2022-12-19T01:35:09;1.90;99.90
22940;DHT22;11636;52.086;5.090;2022-12-19T01:37:49;1.90;99.90
22940;DHT22;11636;52.086;5.090;2022-12-19T01:40:16;1.90;99.90
22940;DHT22;11636;52.086;5.090;2022-12-19T01:42:50;1.90;99.90
22940;DHT22;11636;52.086;5.090;2022-12-19T01:45:31;2.00;99.90
22940;DHT22;11636;52.086;5.090;2022-12-19T01:48:21;2.00;99.90
22940;DHT22;11636;52.086;5.090;2022-12-19T01:50:53;2.00;99.90
22940;DHT22;11636;52.086;5.090;2022-12-19T01:53:33;2.10;99.90
22940;DHT22;11636;52.086;5.090;2022-12-19T01:56:16;2.10;99.90
22940;DHT22;11636;52.086;5.090;2022-12-19T01:58:53;2.10;99.90
22940;DHT22;11636;52.086;5.090;2022-12-19T02:01:32;2.10;99.90
22940;DHT22;11636;52.086;5.090;2022-12-19T02:04:18;2.10;99.90
22940;DHT22;11636;52.086;5.090;2022-12-19T02:06:46;2.20;99.90
22940;DHT22;11636;52.086;5.090;2022-12-19T02:09:24;2.20;99.90
22940;DHT22;11636;52.086;5.090;2022-12-19T02:11:51;2.20;99.90
22940;DHT22;11636;52.086;5.090;2022-12-19T02:14:18;2.20;99.90
22940;DHT22;11636;52.086;5.090;2022-12-19T02:16:58;2.30;99.90
22940;DHT22;11636;52.086;5.090;2022-12-19T02:22:39;2.40;99.90
22940;DHT22;11636;52.086;5.090;2022-12-19T02:25:27;2.40;99.90
22940;DHT22;11636;52.086;5.090;2022-12-19T02:36:26;2.60;99.90
22940;DHT22;11636;52.086;5.090;2022-12-19T02:39:05;2.70;99.90
22940;DHT22;11636;52.086;5.090;2022-12-19T02:41:45;2.70;99.90
22940;DHT22;11636;52.086;5.090;2022-12-19T02:44:20;2.70;99.90
22940;DHT22;11636;52.086;5.090;2022-12-19T02:46:57;2.80;99.90
22940;DHT22;11636;52.086;5.090;2022-12-19T02:49:24;2.80;99.90
22940;DHT22;11636;52.086;5.090;2022-12-19T02:51:57;2.90;99.90
22940;DHT22;11636;52.086;5.090;2022-12-19T02:54:40;2.80;99.90
22940;DHT22;11636;52.086;5.090;2022-12-19T03:00:07;2.90;99.90
22940;DHT22;11636;52.086;5.090;2022-12-19T03:02:46;3.00;99.90
22940;DHT22;11636;52.086;5.090;2022-12-19T03:05:31;3.00;99.90
22940;DHT22;11636;52.086;5.090;2022-12-19T03:08:35;3.00;99.90
22940;DHT22;11636;52.086;5.090;2022-12-19T03:11:12;3.00;99.90
22940;DHT22;11636;52.086;5.090;2022-12-19T03:13:53;3.00;99.90
22940;DHT22;11636;52.086;5.090;2022-12-19T03:16:29;3.10;99.90
22940;DHT22;11636;52.086;5.090;2022-12-19T03:18:56;3.10;99.90
22940;DHT22;11636;52.086;5.090;2022-12-19T03:21:35;3.10;99.90
22940;DHT22;11636;52.086;5.090;2022-12-19T03:24:11;3.20;99.90
22940;DHT22;11636;52.086;5.090;2022-12-19T03:27:18;3.20;99.90
22940;DHT22;11636;52.086;5.090;2022-12-19T03:29:53;3.20;99.90
22940;DHT22;11636;52.086;5.090;2022-12-19T03:32:30;3.20;99.90
22940;DHT22;11636;52.086;5.090;2022-12-19T03:35:10;3.30;99.90
22940;DHT22;11636;52.086;5.090;2022-12-19T03:37:45;3.40;99.90
22940;DHT22;11636;52.086;5.090;2022-12-19T03:40:17;3.40;99.90
22940;DHT22;11636;52.086;5.090;2022-12-19T03:43:01;3.50;99.90
22940;DHT22;11636;52.086;5.090;2022-12-19T03:48:47;3.50;99.90
22940;DHT22;11636;52.086;5.090;2022-12-19T03:51:51;3.50;99.90
22940;DHT22;11636;52.086;5.090;2022-12-19T03:54:31;3.50;99.90
22940;DHT22;11636;52.086;5.090;2022-12-19T03:57:16;3.50;99.90
22940;DHT22;11636;52.086;5.090;2022-12-19T04:00:08;3.60;99.90
22940;DHT22;11636;52.086;5.090;2022-12-19T04:02:46;3.60;99.90
22940;DHT22;11636;52.086;5.090;2022-12-19T04:05:25;3.50;99.90
22940;DHT22;11636;52.086;5.090;2022-12-19T04:07:57;3.60;99.90
22940;DHT22;11636;52.086;5.090;2022-12-19T04:10:34;3.60;99.90
22940;DHT22;11636;52.086;5.090;2022-12-19T04:13:08;3.60;99.90
22940;DHT22;11636;52.086;5.090;2022-12-19T04:15:52;3.70;99.90
22940;DHT22;11636;52.086;5.090;2022-12-19T04:18:20;3.70;99.90
22940;DHT22;11636;52.086;5.090;2022-12-19T04:20:59;3.80;99.90
22940;DHT22;11636;52.086;5.090;2022-12-19T04:23:37;3.80;99.90
22940;DHT22;11636;52.086;5.090;2022-12-19T04:26:27;3.80;99.90
22940;DHT22;11636;52.086;5.090;2022-12-19T04:29:13;3.90;99.90
22940;DHT22;11636;52.086;5.090;2022-12-19T04:31:50;3.90;99.90
22940;DHT22;11636;52.086;5.090;2022-12-19T04:34:19;4.00;99.90
22940;DHT22;11636;52.086;5.090;2022-12-19T04:36:47;4.00;99.90
22940;DHT22;11636;52.086;5.090;2022-12-19T04:39:22;4.00;99.90
22940;DHT22;11636;52.086;5.090;2022-12-19T04:41:50;4.10;99.90
22940;DHT22;11636;52.086;5.090;2022-12-19T04:44:20;4.10;99.90
22940;DHT22;11636;52.086;5.090;2022-12-19T04:46:57;4.10;99.90
22940;DHT22;11636;52.086;5.090;2022-12-19T04:49:24;4.10;99.90
22940;DHT22;11636;52.086;5.090;2022-12-19T04:51:51;4.20;99.90
22940;DHT22;11636;52.086;5.090;2022-12-19T04:54:25;4.20;99.90
22940;DHT22;11636;52.086;5.090;2022-12-19T04:56:52;4.30;99.90
22940;DHT22;11636;52.086;5.090;2022-12-19T04:59:19;4.30;99.90
22940;DHT22;11636;52.086;5.090;2022-12-19T05:01:54;4.40;99.90
22940;DHT22;11636;52.086;5.090;2022-12-19T05:04:21;4.40;99.90
22940;DHT22;11636;52.086;5.090;2022-12-19T05:06:55;4.50;99.90
22940;DHT22;11636;52.086;5.090;2022-12-19T05:09:31;4.50;99.90
22940;DHT22;11636;52.086;5.090;2022-12-19T05:12:02;4.60;99.90
22940;DHT22;11636;52.086;5.090;2022-12-19T05:14:32;4.60;99.90
22940;DHT22;11636;52.086;5.090;2022-12-19T05:17:06;4.60;99.90
22940;DHT22;11636;52.086;5.090;2022-12-19T05:19:33;4.70;99.90
22940;DHT22;11636;52.086;5.090;2022-12-19T05:22:07;4.70;99.90
22940;DHT22;11636;52.086;5.090;2022-12-19T05:24:35;4.80;99.90
22940;DHT22;11636;52.086;5.090;2022-12-19T05:27:09;4.80;99.90
22940;DHT22;11636;52.086;5.090;2022-12-19T05:29:36;4.90;99.90
22940;DHT22;11636;52.086;5.090;2022-12-19T05:32:10;4.90;99.90
22940;DHT22;11636;52.086;5.090;2022-12-19T05:34:38;4.90;99.90
22940;DHT22;11636;52.086;5.090;2022-12-19T05:37:12;4.90;99.90
22940;DHT22;11636;52.086;5.090;2022-12-19T05:39:39;5.00;99.90
22940;DHT22;11636;52.086;5.090;2022-12-19T05:42:13;5.00;99.90
22940;DHT22;11636;52.086;5.090;2022-12-19T05:44:40;5.00;99.90
22940;DHT22;11636;52.086;5.090;2022-12-19T05:47:14;5.00;99.90
22940;DHT22;11636;52.086;5.090;2022-12-19T05:49:41;5.10;99.90
22940;DHT22;11636;52.086;5.090;2022-12-19T05:52:08;5.10;99.90
22940;DHT22;11636;52.086;5.090;2022-12-19T05:54:43;5.20;99.90
22940;DHT22;11636;52.086;5.090;2022-12-19T05:57:11;5.20;99.90
22940;DHT22;11636;52.086;5.090;2022-12-19T05:59:41;5.20;99.90
22940;DHT22;11636;52.086;5.090;2022-12-19T06:02:16;5.20;99.90
22940;DHT22;11636;52.086;5.090;2022-12-19T06:04:49;5.30;99.90
22940;DHT22;11636;52.086;5.090;2022-12-19T06:07:17;5.30;99.90
22940;DHT22;11636;52.086;5.090;2022-12-19T06:09:50;5.30;99.90
22940;DHT22;11636;52.086;5.090;2022-12-19T06:12:21;5.40;99.90
22940;DHT22;11636;52.086;5.090;2022-12-19T06:14:48;5.40;99.90
22940;DHT22;11636;52.086;5.090;2022-12-19T06:17:21;5.40;99.90
22940;DHT22;11636;52.086;5.090;2022-12-19T06:19:56;5.50;99.90
22940;DHT22;11636;52.086;5.090;2022-12-19T06:22:22;5.60;99.90
22940;DHT22;11636;52.086;5.090;2022-12-19T06:24:53;5.60;99.90
22940;DHT22;11636;52.086;5.090;2022-12-19T06:27:26;5.60;99.90
22940;DHT22;11636;52.086;5.090;2022-12-19T06:29:55;5.60;99.90
22940;DHT22;11636;52.086;5.090;2022-12-19T06:32:21;5.70;99.90
22940;DHT22;11636;52.086;5.090;2022-12-19T06:35:05;5.70;99.90
22940;DHT22;11636;52.086;5.090;2022-12-19T06:37:32;5.80;99.90
22940;DHT22;11636;52.086;5.090;2022-12-19T06:40:07;5.80;99.90
22940;DHT22;11636;52.086;5.090;2022-12-19T06:42:54;5.80;99.90
22940;DHT22;11636;52.086;5.090;2022-12-19T06:45:29;5.80;99.90
22940;DHT22;11636;52.086;5.090;2022-12-19T06:47:57;5.90;99.90
22940;DHT22;11636;52.086;5.090;2022-12-19T06:50:30;5.90;99.90
22940;DHT22;11636;52.086;5.090;2022-12-19T06:52:57;6.00;99.90
22940;DHT22;11636;52.086;5.090;2022-12-19T06:55:24;6.00;99.90
22940;DHT22;11636;52.086;5.090;2022-12-19T06:57:57;6.00;99.90
22940;DHT22;11636;52.086;5.090;2022-12-19T07:00:32;6.10;99.90
22940;DHT22;11636;52.086;5.090;2022-12-19T07:03:05;6.10;99.90
22940;DHT22;11636;52.086;5.090;2022-12-19T07:05:44;6.20;99.90
22940;DHT22;11636;52.086;5.090;2022-12-19T07:08:19;6.20;99.90
22940;DHT22;11636;52.086;5.090;2022-12-19T07:10:55;6.20;99.90
22940;DHT22;11636;52.086;5.090;2022-12-19T07:13:22;6.20;99.90
22940;DHT22;11636;52.086;5.090;2022-12-19T07:15:57;6.20;99.90
22940;DHT22;11636;52.086;5.090;2022-12-19T07:18:28;6.20;99.90
22940;DHT22;11636;52.086;5.090;2022-12-19T07:21:05;6.20;99.90
22940;DHT22;11636;52.086;5.090;2022-12-19T07:23:34;6.20;99.90
22940;DHT22;11636;52.086;5.090;2022-12-19T07:26:07;6.20;99.90
22940;DHT22;11636;52.086;5.090;2022-12-19T07:28:35;6.30;99.90
22940;DHT22;11636;52.086;5.090;2022-12-19T07:31:12;6.30;99.90
22940;DHT22;11636;52.086;5.090;2022-12-19T07:33:39;6.30;99.90
22940;DHT22;11636;52.086;5.090;2022-12-19T07:36:13;6.30;99.90
22940;DHT22;11636;52.086;5.090;2022-12-19T07:38:40;6.30;99.90
22940;DHT22;11636;52.086;5.090;2022-12-19T07:41:14;6.40;99.90
22940;DHT22;11636;52.086;5.090;2022-12-19T07:43:41;6.40;99.90
22940;DHT22;11636;52.086;5.090;2022-12-19T07:46:15;6.40;99.90
22940;DHT22;11636;52.086;5.090;2022-12-19T07:48:42;6.40;99.90
22940;DHT22;11636;52.086;5.090;2022-12-19T07:51:16;6.40;99.90
22940;DHT22;11636;52.086;5.090;2022-12-19T07:53:43;6.50;99.90
22940;DHT22;11636;52.086;5.090;2022-12-19T07:56:10;6.50;99.90
22940;DHT22;11636;52.086;5.090;2022-12-19T07:58:44;6.50;99.90
22940;DHT22;11636;52.086;5.090;2022-12-19T08:01:11;6.50;99.90
22940;DHT22;11636;52.086;5.090;2022-12-19T08:03:38;6.50;99.90
22940;DHT22;11636;52.086;5.090;2022-12-19T08:06:12;6.50;99.90
22940;DHT22;11636;52.086;5.090;2022-12-19T08:08:39;6.50;99.90
22940;DHT22;11636;52.086;5.090;2022-12-19T08:11:16;6.60;99.90
22940;DHT22;11636;52.086;5.090;2022-12-19T08:13:45;6.60;99.90
22940;DHT22;11636;52.086;5.090;2022-12-19T08:16:21;6.60;99.90
22940;DHT22;11636;52.086;5.090;2022-12-19T08:18:48;6.60;99.90
22940;DHT22;11636;52.086;5.090;2022-12-19T08:21:22;6.60;99.90
22940;DHT22;11636;52.086;5.090;2022-12-19T08:23:50;6.60;99.90
22940;DHT22;11636;52.086;5.090;2022-12-19T08:26:19;6.70;99.90
22940;DHT22;11636;52.086;5.090;2022-12-19T08:29:06;6.60;99.90
22940;DHT22;11636;52.086;5.090;2022-12-19T08:31:39;6.60;99.90
22940;DHT22;11636;52.086;5.090;2022-12-19T08:34:13;6.70;99.90
22940;DHT22;11636;52.086;5.090;2022-12-19T08:36:40;6.70;99.90
22940;DHT22;11636;52.086;5.090;2022-12-19T08:39:14;6.80;99.90
22940;DHT22;11636;52.086;5.090;2022-12-19T08:41:41;6.80;99.90
22940;DHT22;11636;52.086;5.090;2022-12-19T08:44:15;6.80;99.90
22940;DHT22;11636;52.086;5.090;2022-12-19T08:46:42;6.80;99.90
22940;DHT22;11636;52.086;5.090;2022-12-19T08:49:17;6.80;99.90
22940;DHT22;11636;52.086;5.090;2022-12-19T08:51:51;6.80;99.90
22940;DHT22;11636;52.086;5.090;2022-12-19T08:54:25;6.80;99.90
22940;DHT22;11636;52.086;5.090;2022-12-19T08:56:52;6.90;99.90
22940;DHT22;11636;52.086;5.090;2022-12-19T08:59:20;6.90;99.90
22940;DHT22;11636;52.086;5.090;2022-12-19T09:01:59;6.90;99.90
22940;DHT22;11636;52.086;5.090;2022-12-19T09:04:32;6.90;99.90
22940;DHT22;11636;52.086;5.090;2022-12-19T09:07:20;6.90;99.90
22940;DHT22;11636;52.086;5.090;2022-12-19T09:09:53;6.90;99.90
22940;DHT22;11636;52.086;5.090;2022-12-19T09:12:22;6.90;99.90
22940;DHT22;11636;52.086;5.090;2022-12-19T09:14:55;7.00;99.90
22940;DHT22;11636;52.086;5.090;2022-12-19T09:17:29;7.00;99.90
22940;DHT22;11636;52.086;5.090;2022-12-19T09:19:56;7.00;99.90
22940;DHT22;11636;52.086;5.090;2022-12-19T09:22:37;7.00;99.90
22940;DHT22;11636;52.086;5.090;2022-12-19T09:25:04;7.10;99.90
22940;DHT22;11636;52.086;5.090;2022-12-19T09:27:38;7.10;99.90
22940;DHT22;11636;52.086;5.090;2022-12-19T09:30:25;7.10;99.90
22940;DHT22;11636;52.086;5.090;2022-12-19T09:33:01;7.10;99.90
22940;DHT22;11636;52.086;5.090;2022-12-19T09:35:28;7.10;99.90
22940;DHT22;11636;52.086;5.090;2022-12-19T09:37:57;7.10;99.90
22940;DHT22;11636;52.086;5.090;2022-12-19T09:40:45;7.10;99.90
22940;DHT22;11636;52.086;5.090;2022-12-19T09:46:18;7.10;99.90
22940;DHT22;11636;52.086;5.090;2022-12-19T09:48:48;7.20;99.90
22940;DHT22;11636;52.086;5.090;2022-12-19T09:51:33;7.20;99.90
22940;DHT22;11636;52.086;5.090;2022-12-19T09:54:35;7.10;99.90
22940;DHT22;11636;52.086;5.090;2022-12-19T09:57:20;7.10;99.90
22940;DHT22;11636;52.086;5.090;2022-12-19T10:00:09;7.20;99.90
22940;DHT22;11636;52.086;5.090;2022-12-19T10:03:07;7.20;99.90
22940;DHT22;11636;52.086;5.090;2022-12-19T10:05:59;7.30;99.90
22940;DHT22;11636;52.086;5.090;2022-12-19T10:08:54;7.40;99.90
22940;DHT22;11636;52.086;5.090;2022-12-19T10:12:14;7.50;99.90
22940;DHT22;11636;52.086;5.090;2022-12-19T10:15:32;7.60;99.90
22940;DHT22;11636;52.086;5.090;2022-12-19T10:27:48;7.60;99.90
22940;DHT22;11636;52.086;5.090;2022-12-19T10:30:28;7.70;99.90
22940;DHT22;11636;52.086;5.090;2022-12-19T10:35:53;7.70;99.90
22940;DHT22;11636;52.086;5.090;2022-12-19T10:38:59;7.70;99.90
22940;DHT22;11636;52.086;5.090;2022-12-19T10:41:30;7.70;99.90
22940;DHT22;11636;52.086;5.090;2022-12-19T10:44:10;7.70;99.90
22940;DHT22;11636;52.086;5.090;2022-12-19T10:46:47;7.70;99.90
22940;DHT22;11636;52.086;5.090;2022-12-19T10:49:27;7.60;99.90
22940;DHT22;11636;52.086;5.090;2022-12-19T10:54:38;7.70;99.90
22940;DHT22;11636;52.086;5.090;2022-12-19T11:02:47;7.70;99.90
22940;DHT22;11636;52.086;5.090;2022-12-19T11:05:26;7.70;99.90
22940;DHT22;11636;52.086;5.090;2022-12-19T11:10:55;7.80;99.90
22940;DHT22;11636;52.086;5.090;2022-12-19T11:13:47;7.80;99.90
22940;DHT22;11636;52.086;5.090;2022-12-19T11:16:40;7.90;99.90
22940;DHT22;11636;52.086;5.090;2022-12-19T11:19:38;7.80;99.90
22940;DHT22;11636;52.086;5.090;2022-12-19T11:22:31;7.80;99.90
22940;DHT22;11636;52.086;5.090;2022-12-19T11:25:36;7.80;99.90
22940;DHT22;11636;52.086;5.090;2022-12-19T11:28:34;7.90;99.90
22940;DHT22;11636;52.086;5.090;2022-12-19T11:31:23;7.90;99.90
22940;DHT22;11636;52.086;5.090;2022-12-19T11:34:20;7.90;99.90
22940;DHT22;11636;52.086;5.090;2022-12-19T11:36:54;7.90;99.90
22940;DHT22;11636;52.086;5.090;2022-12-19T11:44:52;8.00;99.90
22940;DHT22;11636;52.086;5.090;2022-12-19T11:48:02;8.00;99.90
22940;DHT22;11636;52.086;5.090;2022-12-19T11:50:40;8.00;99.90
22940;DHT22;11636;52.086;5.090;2022-12-19T11:56:12;8.10;99.90
22940;DHT22;11636;52.086;5.090;2022-12-19T11:58:49;8.10;99.90
22940;DHT22;11636;52.086;5.090;2022-12-19T12:01:40;8.20;99.90
22940;DHT22;11636;52.086;5.090;2022-12-19T12:07:14;8.20;99.90
22940;DHT22;11636;52.086;5.090;2022-12-19T12:10:16;8.30;99.90
22940;DHT22;11636;52.086;5.090;2022-12-19T12:26:26;8.40;99.90
22940;DHT22;11636;52.086;5.090;2022-12-19T12:29:53;8.40;99.90
22940;DHT22;11636;52.086;5.090;2022-12-19T12:33:37;8.40;99.90
22940;DHT22;11636;52.086;5.090;2022-12-19T12:36:09;8.40;99.90
22940;DHT22;11636;52.086;5.090;2022-12-19T12:39:08;8.50;99.90
22940;DHT22;11636;52.086;5.090;2022-12-19T12:44:40;8.60;99.90
22940;DHT22;11636;52.086;5.090;2022-12-19T12:47:21;8.60;99.90
22940;DHT22;11636;52.086;5.090;2022-12-19T12:50:02;8.60;99.90
22940;DHT22;11636;52.086;5.090;2022-12-19T12:53:01;8.70;99.90
22940;DHT22;11636;52.086;5.090;2022-12-19T12:55:39;8.70;99.90
22940;DHT22;11636;52.086;5.090;2022-12-19T13:01:15;8.70;99.90
22940;DHT22;11636;52.086;5.090;2022-12-19T13:04:01;8.70;99.90
22940;DHT22;11636;52.086;5.090;2022-12-19T13:06:35;8.80;99.90
22940;DHT22;11636;52.086;5.090;2022-12-19T13:11:37;8.80;99.90
22940;DHT22;11636;52.086;5.090;2022-12-19T13:17:04;8.80;99.90
22940;DHT22;11636;52.086;5.090;2022-12-19T13:30:34;8.70;99.90
22940;DHT22;11636;52.086;5.090;2022-12-19T13:34:32;8.80;99.90
22940;DHT22;11636;52.086;5.090;2022-12-19T13:36:50;8.70;99.90
22940;DHT22;11636;52.086;5.090;2022-12-19T13:42:36;8.70;99.90
22940;DHT22;11636;52.086;5.090;2022-12-19T13:45:39;8.70;99.90
22940;DHT22;11636;52.086;5.090;2022-12-19T13:48:16;8.70;99.90
22940;DHT22;11636;52.086;5.090;2022-12-19T13:50:53;8.70;99.90
22940;DHT22;11636;52.086;5.090;2022-12-19T13:53:28;8.70;99.90
22940;DHT22;11636;52.086;5.090;2022-12-19T13:56:17;8.70;99.90
22940;DHT22;11636;52.086;5.090;2022-12-19T13:59:00;8.70;99.90
22940;DHT22;11636;52.086;5.090;2022-12-19T14:01:36;8.70;99.90
22940;DHT22;11636;52.086;5.090;2022-12-19T14:04:13;8.70;99.90
22940;DHT22;11636;52.086;5.090;2022-12-19T14:07:03;8.70;99.90
22940;DHT22;11636;52.086;5.090;2022-12-19T14:09:41;8.70;99.90
22940;DHT22;11636;52.086;5.090;2022-12-19T14:12:40;8.70;99.90
22940;DHT22;11636;52.086;5.090;2022-12-19T14:15:53;8.70;99.90
22940;DHT22;11636;52.086;5.090;2022-12-19T14:18:29;8.70;99.90
22940;DHT22;11636;52.086;5.090;2022-12-19T14:24:19;8.70;99.90
22940;DHT22;11636;52.086;5.090;2022-12-19T14:27:00;8.70;99.90
22940;DHT22;11636;52.086;5.090;2022-12-19T14:29:52;8.70;99.90
22940;DHT22;11636;52.086;5.090;2022-12-19T14:32:48;8.80;99.90
22940;DHT22;11636;52.086;5.090;2022-12-19T14:35:47;8.80;99.90
22940;DHT22;11636;52.086;5.090;2022-12-19T14:38:35;8.80;99.90
22940;DHT22;11636;52.086;5.090;2022-12-19T14:44:20;8.80;99.90
22940;DHT22;11636;52.086;5.090;2022-12-19T14:47:25;8.80;99.90
22940;DHT22;11636;52.086;5.090;2022-12-19T14:50:36;8.80;99.90
22940;DHT22;11636;52.086;5.090;2022-12-19T14:53:23;8.80;99.90
22940;DHT22;11636;52.086;5.090;2022-12-19T14:56:18;8.80;99.90
22940;DHT22;11636;52.086;5.090;2022-12-19T15:02:33;8.80;99.90
22940;DHT22;11636;52.086;5.090;2022-12-19T15:05:12;8.80;99.90
22940;DHT22;11636;52.086;5.090;2022-12-19T15:07:49;8.80;99.90
22940;DHT22;11636;52.086;5.090;2022-12-19T15:10:28;8.80;99.90
22940;DHT22;11636;52.086;5.090;2022-12-19T15:13:25;8.80;99.90
22940;DHT22;11636;52.086;5.090;2022-12-19T15:16:26;8.70;99.90
22940;DHT22;11636;52.086;5.090;2022-12-19T15:19:02;8.70;99.90
22940;DHT22;11636;52.086;5.090;2022-12-19T15:21:35;8.60;99.90
22940;DHT22;11636;52.086;5.090;2022-12-19T15:24:02;8.50;99.90
22940;DHT22;11636;52.086;5.090;2022-12-19T15:26:46;8.50;99.90
22940;DHT22;11636;52.086;5.090;2022-12-19T15:29:21;8.50;99.90
22940;DHT22;11636;52.086;5.090;2022-12-19T15:31:48;8.50;99.90
22940;DHT22;11636;52.086;5.090;2022-12-19T15:34:30;8.50;99.90
22940;DHT22;11636;52.086;5.090;2022-12-19T15:37:16;8.50;99.90
22940;DHT22;11636;52.086;5.090;2022-12-19T15:39:50;8.50;99.90
22940;DHT22;11636;52.086;5.090;2022-12-19T15:42:26;8.50;99.90
22940;DHT22;11636;52.086;5.090;2022-12-19T15:44:53;8.50;99.90
22940;DHT22;11636;52.086;5.090;2022-12-19T15:47:34;8.40;99.90
22940;DHT22;11636;52.086;5.090;2022-12-19T15:50:23;8.50;99.90
22940;DHT22;11636;52.086;5.090;2022-12-19T15:53:00;8.50;99.90
22940;DHT22;11636;52.086;5.090;2022-12-19T15:55:43;8.50;99.90
22940;DHT22;11636;52.086;5.090;2022-12-19T15:58:11;8.50;99.90
22940;DHT22;11636;52.086;5.090;2022-12-19T16:00:53;8.50;99.90
22940;DHT22;11636;52.086;5.090;2022-12-19T16:03:20;8.50;99.90
22940;DHT22;11636;52.086;5.090;2022-12-19T16:05:55;8.50;99.90
22940;DHT22;11636;52.086;5.090;2022-12-19T16:08:29;8.50;99.90
22940;DHT22;11636;52.086;5.090;2022-12-19T16:10:57;8.40;99.90
22940;DHT22;11636;52.086;5.090;2022-12-19T16:13:32;8.40;99.90
22940;DHT22;11636;52.086;5.090;2022-12-19T16:16:02;8.50;99.90
22940;DHT22;11636;52.086;5.090;2022-12-19T16:18:41;8.40;99.90
22940;DHT22;11636;52.086;5.090;2022-12-19T16:21:28;8.50;99.90
22940;DHT22;11636;52.086;5.090;2022-12-19T16:24:02;8.50;99.90
22940;DHT22;11636;52.086;5.090;2022-12-19T16:26:35;8.50;99.90
22940;DHT22;11636;52.086;5.090;2022-12-19T16:29:30;8.60;99.90
22940;DHT22;11636;52.086;5.090;2022-12-19T16:32:12;8.70;99.90
22940;DHT22;11636;52.086;5.090;2022-12-19T16:34:45;8.70;99.90
22940;DHT22;11636;52.086;5.090;2022-12-19T16:37:15;8.60;99.90
22940;DHT22;11636;52.086;5.090;2022-12-19T16:39:42;8.70;99.90
22940;DHT22;11636;52.086;5.090;2022-12-19T16:42:16;8.70;99.90
22940;DHT22;11636;52.086;5.090;2022-12-19T16:44:44;8.70;99.90
22940;DHT22;11636;52.086;5.090;2022-12-19T16:47:19;8.70;99.90
22940;DHT22;11636;52.086;5.090;2022-12-19T16:49:46;8.70;99.90
22940;DHT22;11636;52.086;5.090;2022-12-19T16:52:20;8.70;99.90
22940;DHT22;11636;52.086;5.090;2022-12-19T16:54:48;8.70;99.90
22940;DHT22;11636;52.086;5.090;2022-12-19T16:57:21;8.70;99.90
22940;DHT22;11636;52.086;5.090;2022-12-19T16:59:55;8.70;99.90
22940;DHT22;11636;52.086;5.090;2022-12-19T17:05:21;8.70;99.90
22940;DHT22;11636;52.086;5.090;2022-12-19T17:07:58;8.70;99.90
22940;DHT22;11636;52.086;5.090;2022-12-19T17:10:32;8.70;99.90
22940;DHT22;11636;52.086;5.090;2022-12-19T17:13:06;8.80;99.90
22940;DHT22;11636;52.086;5.090;2022-12-19T17:15:34;8.80;99.90
22940;DHT22;11636;52.086;5.090;2022-12-19T17:18:16;8.80;99.90
22940;DHT22;11636;52.086;5.090;2022-12-19T17:20:46;8.80;99.90
22940;DHT22;11636;52.086;5.090;2022-12-19T17:23:22;8.80;99.90
22940;DHT22;11636;52.086;5.090;2022-12-19T17:25:49;8.70;99.90
22940;DHT22;11636;52.086;5.090;2022-12-19T17:28:26;8.70;99.90
22940;DHT22;11636;52.086;5.090;2022-12-19T17:31:06;8.70;99.90
22940;DHT22;11636;52.086;5.090;2022-12-19T17:33:46;8.60;99.90
22940;DHT22;11636;52.086;5.090;2022-12-19T17:36:14;8.50;99.90
22940;DHT22;11636;52.086;5.090;2022-12-19T17:38:53;8.50;99.90
22940;DHT22;11636;52.086;5.090;2022-12-19T17:41:26;8.50;99.90
22940;DHT22;11636;52.086;5.090;2022-12-19T17:44:00;8.50;99.90
22940;DHT22;11636;52.086;5.090;2022-12-19T17:46:27;8.40;99.90
22940;DHT22;11636;52.086;5.090;2022-12-19T17:48:56;8.50;99.90
22940;DHT22;11636;52.086;5.090;2022-12-19T17:51:29;8.50;99.90
22940;DHT22;11636;52.086;5.090;2022-12-19T17:54:11;8.50;99.90
22940;DHT22;11636;52.086;5.090;2022-12-19T17:56:44;8.50;99.90
22940;DHT22;11636;52.086;5.090;2022-12-19T17:59:11;8.50;99.90
22940;DHT22;11636;52.086;5.090;2022-12-19T18:01:44;8.40;99.90
22940;DHT22;11636;52.086;5.090;2022-12-19T18:04:20;8.50;99.90
22940;DHT22;11636;52.086;5.090;2022-12-19T18:06:49;8.50;99.90
22940;DHT22;11636;52.086;5.090;2022-12-19T18:09:23;8.50;99.90
22940;DHT22;11636;52.086;5.090;2022-12-19T18:11:57;8.50;99.90
22940;DHT22;11636;52.086;5.090;2022-12-19T18:14:30;8.50;99.90
22940;DHT22;11636;52.086;5.090;2022-12-19T18:16:58;8.60;99.90
22940;DHT22;11636;52.086;5.090;2022-12-19T18:19:31;8.60;99.90
22940;DHT22;11636;52.086;5.090;2022-12-19T18:22:00;8.60;99.90
22940;DHT22;11636;52.086;5.090;2022-12-19T18:24:33;8.60;99.90
22940;DHT22;11636;52.086;5.090;2022-12-19T18:27:08;8.50;99.90
22940;DHT22;11636;52.086;5.090;2022-12-19T18:29:48;8.60;99.90
22940;DHT22;11636;52.086;5.090;2022-12-19T18:32:17;8.60;99.90
22940;DHT22;11636;52.086;5.090;2022-12-19T18:34:51;8.60;99.90